createdAt,value
2022-11-03T00:01:47.809Z,8.48
2022-11-03T00:04:19.141Z,8.85
2022-11-03T00:06:49.785Z,8.52
2022-11-03T00:09:23.334Z,8.50
2022-11-03T00:11:52.048Z,8.50
2022-11-03T00:14:19.665Z,8.93
2022-11-03T00:16:47.455Z,8.95
2022-11-03T00:19:17.689Z,8.23
2022-11-03T00:21:45.424Z,9.75
2022-11-03T00:24:13.183Z,9.80
2022-11-03T00:26:40.587Z,8.50
2022-11-03T00:29:13.153Z,8.20
2022-11-03T00:31:43.130Z,8.18
2022-11-03T00:34:11.146Z,8.57
2022-11-03T00:36:41.049Z,9.05
2022-11-03T00:39:08.446Z,9.98
2022-11-03T00:41:36.178Z,9.10
2022-11-03T00:44:03.639Z,9.93
2022-11-03T00:46:30.705Z,8.93
2022-11-03T00:48:58.033Z,7.85
2022-11-03T00:51:34.412Z,7.75
2022-11-03T00:54:03.811Z,8.00
2022-11-03T00:56:35.953Z,8.32
2022-11-03T00:59:06.903Z,7.45
2022-11-03T01:01:46.535Z,7.60
2022-11-03T01:04:36.579Z,7.82
2022-11-03T01:07:05.245Z,7.47
2022-11-03T01:09:38.539Z,7.35
2022-11-03T01:12:05.897Z,7.68
2022-11-03T01:14:46.821Z,7.28
2022-11-03T01:17:22.565Z,8.38
2022-11-03T01:19:52.535Z,7.07
2022-11-03T01:22:20.330Z,7.80
2022-11-03T01:24:47.809Z,8.45
2022-11-03T01:27:17.597Z,8.02
2022-11-03T01:29:44.875Z,7.35
2022-11-03T01:32:12.692Z,7.68
2022-11-03T01:34:42.622Z,8.85
2022-11-03T01:37:09.703Z,8.70
2022-11-03T01:39:37.131Z,8.38
2022-11-03T01:42:04.440Z,8.18
2022-11-03T01:44:35.665Z,8.18
2022-11-03T01:47:31.792Z,8.07
2022-11-03T01:50:12.444Z,8.52
2022-11-03T01:52:51.306Z,8.65
2022-11-03T01:55:32.719Z,8.93
2022-11-03T01:58:07.399Z,10.43
2022-11-03T02:00:36.141Z,6.80
2022-11-03T02:03:04.789Z,9.70
2022-11-03T02:05:32.554Z,10.75
2022-11-03T02:08:02.435Z,10.63
2022-11-03T02:10:29.642Z,10.02
2022-11-03T02:12:59.475Z,10.57
2022-11-03T02:15:27.636Z,9.32
2022-11-03T02:17:56.932Z,10.27
2022-11-03T02:20:27.101Z,9.65
2022-11-03T02:23:12.350Z,9.38
2022-11-03T02:25:52.947Z,9.85
2022-11-03T02:28:23.453Z,9.30
2022-11-03T02:31:08.977Z,9.93
2022-11-03T02:33:42.174Z,10.00
2022-11-03T02:36:12.590Z,9.15
2022-11-03T02:38:47.458Z,10.15
2022-11-03T02:41:16.311Z,10.05
2022-11-03T02:43:45.858Z,11.07
2022-11-03T02:46:17.211Z,10.93
2022-11-03T02:48:44.282Z,11.02
2022-11-03T02:51:11.512Z,10.77
2022-11-03T02:54:10.268Z,10.90
2022-11-03T02:56:52.914Z,11.02
2022-11-03T02:59:27.863Z,10.85
2022-11-03T03:02:05.836Z,8.32
2022-11-03T03:04:55.510Z,9.82
2022-11-03T03:07:26.606Z,9.88
2022-11-03T03:10:02.487Z,10.10
2022-11-03T03:12:32.147Z,10.27
2022-11-03T03:15:01.659Z,11.02
2022-11-03T03:17:49.362Z,10.32
2022-11-03T03:20:22.626Z,10.50
2022-11-03T03:23:00.781Z,9.98
2022-11-03T03:25:36.204Z,9.10
2022-11-03T03:28:10.521Z,9.48
2022-11-03T03:30:39.154Z,10.00
2022-11-03T03:33:08.776Z,9.73
2022-11-03T03:35:40.381Z,10.40
2022-11-03T03:38:13.546Z,9.65
2022-11-03T03:40:44.176Z,10.20
2022-11-03T03:43:17.402Z,10.38
2022-11-03T03:45:46.169Z,10.07
2022-11-03T03:48:13.634Z,10.65
2022-11-03T03:50:42.822Z,10.73
2022-11-03T03:53:13.251Z,10.63
2022-11-03T03:55:42.745Z,10.52
2022-11-03T03:58:13.108Z,10.10
2022-11-03T04:00:40.434Z,11.05
2022-11-03T04:03:14.891Z,10.73
2022-11-03T04:05:41.831Z,9.45
2022-11-03T04:08:09.653Z,9.95
2022-11-03T04:10:36.801Z,9.85
2022-11-03T04:13:23.586Z,9.02
2022-11-03T04:18:55.326Z,8.30
2022-11-03T04:21:57.722Z,9.35
2022-11-03T04:24:27.544Z,8.88
2022-11-03T04:27:00.936Z,9.57
2022-11-03T04:29:29.464Z,9.55
2022-11-03T04:31:57.264Z,9.48
2022-11-03T04:34:25.166Z,9.02
2022-11-03T04:36:52.094Z,10.00
2022-11-03T04:39:20.407Z,8.55
2022-11-03T04:41:48.351Z,9.40
2022-11-03T04:44:16.850Z,8.73
2022-11-03T04:46:45.943Z,8.75
2022-11-03T04:49:21.976Z,8.43
2022-11-03T04:51:50.300Z,9.35
2022-11-03T04:54:22.524Z,9.32
2022-11-03T04:56:49.891Z,10.05
2022-11-03T04:59:17.373Z,9.25
2022-11-03T05:01:47.155Z,9.05
2022-11-03T05:04:16.599Z,9.90
2022-11-03T05:06:52.684Z,8.93
2022-11-03T05:09:27.726Z,10.27
2022-11-03T05:11:54.839Z,9.82
2022-11-03T05:14:27.870Z,9.90
2022-11-03T05:16:56.314Z,9.73
2022-11-03T05:19:28.991Z,9.98
2022-11-03T05:21:59.154Z,10.65
2022-11-03T05:24:27.024Z,10.27
2022-11-03T05:26:56.864Z,9.40
2022-11-03T05:29:38.881Z,9.15
2022-11-03T05:32:16.888Z,9.55
2022-11-03T05:34:47.340Z,8.98
2022-11-03T05:37:27.976Z,9.93
2022-11-03T05:39:58.662Z,8.88
2022-11-03T05:42:34.010Z,9.55
2022-11-03T05:45:04.767Z,9.23
2022-11-03T05:47:37.518Z,8.27
2022-11-03T05:50:22.300Z,8.52
2022-11-03T05:52:52.818Z,10.10
2022-11-03T05:55:30.623Z,9.90
2022-11-03T05:58:00.175Z,13.32
2022-11-03T06:00:31.260Z,12.10
2022-11-03T06:02:59.489Z,10.93
2022-11-03T06:05:29.556Z,8.23
2022-11-03T06:08:00.631Z,8.35
2022-11-03T06:10:31.373Z,7.60
2022-11-03T06:13:09.507Z,8.13
2022-11-03T06:15:37.700Z,8.77
2022-11-03T06:18:16.341Z,8.95
2022-11-03T06:20:54.866Z,7.70
2022-11-03T06:23:23.482Z,8.20
2022-11-03T06:25:55.712Z,7.70
2022-11-03T06:28:30.525Z,7.85
2022-11-03T06:30:57.988Z,7.85
2022-11-03T06:33:33.381Z,8.60
2022-11-03T06:36:21.176Z,7.80
2022-11-03T06:38:55.296Z,8.75
2022-11-03T06:41:29.885Z,8.32
2022-11-03T06:44:02.534Z,7.93
2022-11-03T06:46:30.903Z,7.97
2022-11-03T06:49:00.650Z,8.27
2022-11-03T06:51:29.637Z,8.52
2022-11-03T06:54:01.686Z,9.07
2022-11-03T06:56:32.029Z,8.27
2022-11-03T06:58:59.046Z,8.93
2022-11-03T07:01:31.256Z,8.45
2022-11-03T07:04:30.079Z,8.25
2022-11-03T07:07:03.115Z,8.75
2022-11-03T07:09:30.251Z,8.48
2022-11-03T07:11:59.939Z,7.03
2022-11-03T07:14:33.219Z,7.43
2022-11-03T07:17:05.748Z,7.28
2022-11-03T07:19:42.577Z,8.00
2022-11-03T07:22:18.633Z,7.80
2022-11-03T07:24:51.772Z,7.78
2022-11-03T07:27:34.888Z,7.45
2022-11-03T07:30:22.854Z,7.38
2022-11-03T07:32:53.351Z,7.70
2022-11-03T07:35:53.411Z,7.30
2022-11-03T07:38:22.516Z,7.43
2022-11-03T07:40:51.678Z,7.28
2022-11-03T07:43:25.252Z,8.00
2022-11-03T07:45:53.776Z,6.45
2022-11-03T07:48:33.802Z,7.60
2022-11-03T07:51:22.327Z,7.50
2022-11-03T07:53:56.656Z,8.02
2022-11-03T07:56:29.156Z,7.63
2022-11-03T07:59:04.780Z,6.88
2022-11-03T08:01:36.905Z,8.02
2022-11-03T08:04:07.078Z,7.20
2022-11-03T08:06:34.464Z,7.53
2022-11-03T08:09:02.099Z,7.95
2022-11-03T08:11:29.833Z,7.72
2022-11-03T08:13:57.850Z,8.07
2022-11-03T08:16:24.824Z,7.63
2022-11-03T08:18:52.267Z,7.50
2022-11-03T08:21:19.345Z,7.70
2022-11-03T08:23:47.783Z,6.82
2022-11-03T08:26:17.475Z,7.80
2022-11-03T08:28:44.877Z,7.13
2022-11-03T08:31:13.160Z,6.70
2022-11-03T08:33:43.693Z,7.10
2022-11-03T08:36:11.180Z,6.82
2022-11-03T08:38:39.537Z,5.82
2022-11-03T08:41:06.582Z,5.95
2022-11-03T08:43:33.897Z,5.30
2022-11-03T08:46:08.140Z,4.93
2022-11-03T08:48:40.348Z,5.40
2022-11-03T08:51:10.363Z,5.72
2022-11-03T08:53:40.513Z,6.10
2022-11-03T08:56:10.528Z,5.47
2022-11-03T08:58:40.222Z,5.53
2022-11-03T09:01:09.683Z,5.82
2022-11-03T09:03:37.056Z,6.38
2022-11-03T09:06:04.282Z,6.32
2022-11-03T09:11:18.727Z,5.93
2022-11-03T09:13:46.055Z,6.20
2022-11-03T09:16:13.130Z,6.07
2022-11-03T09:18:40.127Z,5.45
2022-11-03T09:21:08.971Z,5.50
2022-11-03T09:23:37.269Z,5.60
2022-11-03T09:26:06.736Z,5.93
2022-11-03T09:28:33.737Z,5.07
2022-11-03T09:31:01.054Z,4.88
2022-11-03T09:33:28.039Z,4.57
2022-11-03T09:35:55.539Z,3.90
2022-11-03T09:38:22.659Z,3.42
2022-11-03T09:40:49.968Z,3.55
2022-11-03T09:43:17.175Z,3.20
2022-11-03T09:45:44.490Z,3.30
2022-11-03T09:48:12.891Z,3.25
2022-11-03T09:50:40.540Z,3.05
2022-11-03T09:53:12.055Z,2.75
2022-11-03T09:55:39.993Z,2.85
2022-11-03T09:58:17.466Z,3.42
2022-11-03T10:00:45.605Z,2.72
2022-11-03T10:03:14.899Z,3.33
2022-11-03T10:05:45.070Z,2.88
2022-11-03T10:08:31.475Z,2.55
2022-11-03T10:11:00.492Z,2.58
2022-11-03T10:13:39.064Z,2.75
2022-11-03T10:16:09.237Z,3.08
2022-11-03T10:18:37.613Z,2.88
2022-11-03T10:21:07.519Z,2.95
2022-11-03T10:23:34.870Z,3.30
2022-11-03T10:26:19.754Z,3.10
2022-11-03T10:31:54.254Z,2.80
2022-11-03T10:34:42.034Z,2.53
2022-11-03T10:37:22.807Z,2.47
2022-11-03T10:39:53.010Z,2.85
2022-11-03T10:42:35.196Z,2.60
2022-11-03T10:45:32.568Z,2.47
2022-11-03T10:48:02.022Z,2.78
2022-11-03T10:50:29.466Z,2.25
2022-11-03T10:52:57.618Z,2.33
2022-11-03T10:55:25.747Z,2.00
2022-11-03T10:57:55.908Z,2.10
2022-11-03T11:00:24.370Z,2.75
2022-11-03T11:02:58.717Z,2.58
2022-11-03T11:05:26.427Z,2.20
2022-11-03T11:07:54.512Z,2.35
2022-11-03T11:10:27.079Z,2.25
2022-11-03T11:13:13.775Z,2.00
2022-11-03T11:16:28.993Z,2.25
2022-11-03T11:18:55.920Z,2.28
2022-11-03T11:21:25.124Z,2.42
2022-11-03T11:23:54.555Z,2.40
2022-11-03T11:26:32.155Z,2.00
2022-11-03T11:29:08.515Z,2.25
2022-11-03T11:31:39.497Z,2.70
2022-11-03T11:34:09.313Z,2.47
2022-11-03T11:36:41.925Z,2.30
2022-11-03T11:39:15.329Z,2.60
2022-11-03T11:42:05.657Z,2.17
2022-11-03T11:44:54.899Z,2.80
2022-11-03T11:47:27.231Z,2.55
2022-11-03T11:50:12.208Z,2.30
2022-11-03T11:52:46.305Z,2.33
2022-11-03T11:55:33.842Z,2.42
2022-11-03T11:58:04.759Z,2.83
2022-11-03T12:00:34.940Z,2.70
2022-11-03T12:03:05.956Z,2.67
2022-11-03T12:05:35.980Z,2.63
2022-11-03T12:08:17.492Z,2.95
2022-11-03T12:10:53.435Z,2.13
2022-11-03T12:13:44.570Z,2.60
2022-11-03T12:16:30.608Z,2.35
2022-11-03T12:19:18.387Z,2.30
2022-11-03T12:21:52.121Z,2.50
2022-11-03T12:24:32.253Z,2.35
2022-11-03T12:27:00.388Z,2.75
2022-11-03T12:29:30.247Z,2.08
2022-11-03T12:31:57.299Z,1.80
2022-11-03T12:34:24.228Z,2.30
2022-11-03T12:36:56.342Z,2.67
2022-11-03T12:39:23.638Z,2.83
2022-11-03T12:41:50.830Z,2.20
2022-11-03T12:44:18.169Z,2.45
2022-11-03T12:46:45.280Z,2.78
2022-11-03T12:49:12.265Z,2.67
2022-11-03T12:51:39.636Z,2.65
2022-11-03T12:54:06.752Z,2.10
2022-11-03T12:56:36.358Z,2.17
2022-11-03T12:59:05.585Z,2.30
2022-11-03T13:01:35.887Z,2.30
2022-11-03T13:04:05.190Z,2.45
2022-11-03T13:06:33.261Z,2.40
2022-11-03T13:09:00.951Z,2.35
2022-11-03T13:11:49.309Z,2.50
2022-11-03T13:14:18.736Z,2.53
2022-11-03T13:16:46.185Z,2.50
2022-11-03T13:19:13.394Z,2.08
2022-11-03T13:21:45.406Z,2.35
2022-11-03T13:24:12.371Z,2.72
2022-11-03T13:26:39.652Z,2.63
2022-11-03T13:29:06.648Z,2.50
2022-11-03T13:31:35.852Z,2.33
2022-11-03T13:34:02.883Z,2.45
2022-11-03T13:36:32.679Z,3.17
2022-11-03T13:38:59.700Z,2.75
2022-11-03T13:41:27.009Z,2.88
2022-11-03T13:43:54.003Z,2.65
2022-11-03T13:46:21.374Z,2.70
2022-11-03T13:51:37.899Z,2.85
2022-11-03T13:59:39.254Z,2.88
2022-11-03T14:04:53.815Z,2.63
2022-11-03T14:07:21.092Z,2.97
2022-11-03T14:09:48.180Z,2.78
2022-11-03T14:12:34.853Z,3.15
2022-11-03T14:15:13.290Z,2.65
2022-11-03T14:17:41.347Z,2.40
2022-11-03T14:20:12.324Z,2.78
2022-11-03T14:22:40.870Z,3.10
2022-11-03T14:25:08.553Z,3.42
2022-11-03T14:27:36.090Z,3.00
2022-11-03T14:30:04.283Z,3.60
2022-11-03T14:32:31.594Z,3.25
2022-11-03T14:34:58.651Z,3.60
2022-11-03T14:37:30.405Z,3.00
2022-11-03T14:39:57.341Z,3.13
2022-11-03T14:42:24.972Z,3.53
2022-11-03T14:47:23.050Z,4.10
2022-11-03T14:49:50.531Z,4.80
2022-11-03T14:52:19.747Z,3.30
2022-11-03T14:54:47.102Z,3.45
2022-11-03T14:57:14.082Z,3.55
2022-11-03T14:59:41.874Z,3.50
2022-11-03T15:02:09.260Z,3.33
2022-11-03T15:04:39.099Z,3.17
2022-11-03T15:07:06.112Z,5.05
2022-11-03T15:09:35.715Z,3.50
2022-11-03T15:12:04.454Z,4.57
2022-11-03T15:14:31.513Z,3.70
2022-11-03T15:16:58.782Z,3.75
2022-11-03T15:19:26.062Z,5.30
2022-11-03T15:21:53.351Z,4.18
2022-11-03T15:27:09.979Z,4.65
2022-11-03T15:29:37.680Z,3.60
2022-11-03T15:32:05.036Z,3.60
2022-11-03T15:34:32.454Z,3.60
2022-11-03T15:37:01.855Z,3.67
2022-11-03T15:39:29.922Z,4.25
2022-11-03T15:41:57.665Z,3.67
2022-11-03T15:44:24.975Z,3.92
2022-11-03T15:46:52.014Z,3.38
2022-11-03T15:49:19.251Z,3.47
2022-11-03T15:51:46.922Z,3.65
2022-11-03T15:54:14.825Z,3.20
2022-11-03T15:56:42.017Z,3.13
2022-11-03T15:59:09.994Z,3.47
2022-11-03T16:01:37.518Z,4.10
2022-11-03T16:04:05.141Z,2.85
2022-11-03T16:07:06.129Z,3.75
2022-11-03T16:09:21.044Z,2.95
2022-11-03T16:11:48.600Z,3.38
2022-11-03T16:14:16.024Z,3.70
2022-11-03T16:16:43.934Z,3.92
2022-11-03T16:19:12.009Z,4.13
2022-11-03T16:21:41.977Z,3.20
2022-11-03T16:24:09.807Z,3.55
2022-11-03T16:26:37.627Z,3.50
2022-11-03T16:29:05.184Z,3.50
2022-11-03T16:31:33.190Z,3.58
2022-11-03T16:34:01.001Z,3.35
2022-11-03T16:36:28.917Z,3.80
2022-11-03T16:38:56.543Z,3.50
2022-11-03T16:41:24.653Z,4.03
2022-11-03T16:43:55.236Z,3.90
2022-11-03T16:46:23.333Z,4.03
2022-11-03T16:48:51.520Z,4.00
2022-11-03T16:51:19.685Z,4.20
2022-11-03T16:53:47.598Z,4.35
2022-11-03T16:56:19.479Z,4.40
2022-11-03T16:58:48.973Z,4.95
2022-11-03T17:01:17.310Z,4.65
2022-11-03T17:03:44.840Z,4.78
2022-11-03T17:06:13.149Z,5.43
2022-11-03T17:08:52.888Z,6.80
2022-11-03T17:11:38.366Z,8.93
2022-11-03T17:14:09.113Z,5.47
2022-11-03T17:16:40.256Z,6.43
2022-11-03T17:19:08.043Z,5.53
2022-11-03T17:21:37.178Z,5.45
2022-11-03T17:24:07.771Z,5.47
2022-11-03T17:26:46.797Z,6.53
2022-11-03T17:29:19.625Z,5.43
2022-11-03T17:31:49.166Z,5.05
2022-11-03T17:34:22.102Z,5.35
2022-11-03T17:36:50.696Z,4.70
2022-11-03T17:39:22.037Z,5.15
2022-11-03T17:41:49.879Z,5.85
2022-11-03T17:44:19.088Z,5.05
2022-11-03T17:46:47.583Z,4.78
2022-11-03T17:49:17.428Z,5.15
2022-11-03T17:51:47.194Z,5.45
2022-11-03T17:54:17.168Z,4.90
2022-11-03T17:56:46.468Z,5.00
2022-11-03T17:59:16.490Z,5.03
2022-11-03T18:01:47.459Z,5.00
2022-11-03T18:04:16.040Z,8.70
2022-11-03T18:06:45.954Z,13.90
2022-11-03T18:09:14.256Z,16.52
2022-11-03T18:12:02.049Z,16.83
2022-11-03T18:14:30.718Z,17.23
2022-11-03T18:16:59.486Z,17.60
2022-11-03T18:19:29.345Z,17.55
2022-11-03T18:22:01.139Z,17.27
2022-11-03T18:24:30.085Z,17.77
2022-11-03T18:27:00.741Z,18.73
2022-11-03T18:29:29.739Z,18.58
2022-11-03T18:31:58.995Z,17.83
2022-11-03T18:34:28.673Z,19.08
2022-11-03T18:36:57.272Z,18.45
2022-11-03T18:39:28.307Z,18.52
2022-11-03T18:41:59.028Z,18.27
2022-11-03T18:44:29.429Z,18.38
2022-11-03T18:46:59.292Z,18.70
2022-11-03T18:49:29.841Z,18.67
2022-11-03T18:52:03.837Z,19.50
2022-11-03T18:54:35.803Z,18.65
2022-11-03T18:57:04.615Z,19.05
2022-11-03T18:59:37.890Z,19.75
2022-11-03T19:02:32.533Z,19.67
2022-11-03T19:05:01.635Z,18.60
2022-11-03T19:07:32.361Z,20.15
2022-11-03T19:10:05.345Z,19.08
2022-11-03T19:12:39.149Z,20.90
2022-11-03T19:15:10.759Z,20.10
2022-11-03T19:17:40.255Z,20.38
2022-11-03T19:20:19.450Z,19.83
2022-11-03T19:22:48.439Z,19.95
2022-11-03T19:25:19.752Z,19.48
2022-11-03T19:27:50.696Z,19.33
2022-11-03T19:30:24.145Z,19.95
2022-11-03T19:32:57.835Z,20.75
2022-11-03T19:35:36.437Z,20.73
2022-11-03T19:38:10.799Z,20.83
2022-11-03T19:41:00.043Z,20.95
2022-11-03T19:43:34.197Z,21.38
2022-11-03T19:46:05.162Z,21.02
2022-11-03T19:48:35.481Z,21.67
2022-11-03T19:51:09.426Z,22.23
2022-11-03T19:53:38.277Z,21.05
2022-11-03T19:56:08.976Z,21.27
2022-11-03T19:58:37.286Z,21.48
2022-11-03T20:01:09.459Z,22.60
2022-11-03T20:03:39.182Z,21.73
2022-11-03T20:06:12.160Z,21.63
2022-11-03T20:08:47.871Z,22.35
2022-11-03T20:11:16.395Z,22.77
2022-11-03T20:13:49.359Z,22.83
2022-11-03T20:16:18.755Z,22.98
2022-11-03T20:18:49.492Z,24.77
2022-11-03T20:21:22.940Z,23.13
2022-11-03T20:23:51.905Z,22.67
2022-11-03T20:26:24.282Z,24.35
2022-11-03T20:28:57.073Z,24.40
2022-11-03T20:31:26.925Z,23.73
2022-11-03T20:33:55.205Z,23.00
2022-11-03T20:36:26.353Z,23.40
2022-11-03T20:38:59.898Z,23.08
2022-11-03T20:41:29.461Z,23.85
2022-11-03T20:43:59.508Z,22.40
2022-11-03T20:46:33.863Z,23.08
2022-11-03T20:49:02.404Z,22.95
2022-11-03T20:51:48.865Z,23.30
2022-11-03T20:54:19.475Z,22.45
2022-11-03T20:56:48.071Z,22.75
2022-11-03T20:59:18.111Z,23.35
2022-11-03T21:01:48.019Z,22.80
2022-11-03T21:04:19.697Z,23.30
2022-11-03T21:06:47.740Z,23.98
2022-11-03T21:09:18.320Z,23.33
2022-11-03T21:11:47.167Z,22.63
2022-11-03T21:14:25.115Z,22.67
2022-11-03T21:17:13.884Z,23.40
2022-11-03T21:20:02.021Z,23.05
2022-11-03T21:22:55.906Z,22.85
2022-11-03T21:25:26.448Z,23.33
2022-11-03T21:28:08.585Z,22.40
2022-11-03T21:30:39.388Z,23.50
2022-11-03T21:33:07.223Z,23.73
2022-11-03T21:35:35.232Z,23.33
2022-11-03T21:38:02.994Z,23.90
2022-11-03T21:40:30.459Z,24.00
2022-11-03T21:43:16.211Z,22.80
2022-11-03T21:45:44.738Z,22.25
2022-11-03T21:48:30.897Z,23.50
2022-11-03T21:51:04.526Z,23.35
2022-11-03T21:53:31.614Z,23.67
2022-11-03T21:55:58.902Z,21.70
2022-11-03T21:58:25.967Z,22.02
2022-11-03T22:00:53.479Z,21.75
2022-11-03T22:03:20.506Z,23.10
2022-11-03T22:05:47.783Z,22.83
2022-11-03T22:08:14.759Z,23.23
2022-11-03T22:10:42.017Z,23.08
2022-11-03T22:13:09.709Z,22.73
2022-11-03T22:15:55.850Z,22.40
2022-11-03T22:18:23.084Z,23.23
2022-11-03T22:21:08.800Z,23.17
2022-11-03T22:23:54.525Z,23.48
2022-11-03T22:26:45.919Z,23.75
2022-11-03T22:29:31.401Z,23.70
2022-11-03T22:31:58.929Z,23.10
2022-11-03T22:34:44.486Z,25.92
2022-11-03T22:37:14.714Z,22.98
2022-11-03T22:40:00.407Z,24.10
2022-11-03T22:42:45.761Z,24.27
2022-11-03T22:45:31.206Z,23.65
2022-11-03T22:47:58.458Z,24.17
2022-11-03T22:50:27.951Z,24.38
2022-11-03T22:52:55.243Z,23.80
2022-11-03T22:55:23.341Z,24.30
2022-11-03T22:57:52.798Z,25.00
2022-11-03T23:00:22.012Z,23.52
2022-11-03T23:02:56.157Z,22.27
2022-11-03T23:05:25.571Z,24.15
2022-11-03T23:07:52.824Z,23.33
2022-11-03T23:10:19.951Z,23.38
2022-11-03T23:12:46.899Z,23.92
2022-11-03T23:15:32.498Z,23.10
2022-11-03T23:18:23.313Z,22.93
2022-11-03T23:21:08.772Z,24.10
2022-11-03T23:23:56.311Z,24.13
2022-11-03T23:26:27.294Z,24.00
2022-11-03T23:28:54.857Z,24.65
2022-11-03T23:31:22.622Z,24.67
2022-11-03T23:33:49.750Z,24.85
2022-11-03T23:36:18.127Z,23.52
2022-11-03T23:38:45.231Z,24.63
2022-11-03T23:41:17.341Z,25.48
2022-11-03T23:43:46.256Z,24.98
2022-11-03T23:46:34.158Z,26.58
2022-11-03T23:49:02.211Z,27.20
2022-11-03T23:51:33.504Z,25.52
2022-11-03T23:54:01.806Z,27.58
2022-11-03T23:56:48.787Z,27.55
2022-11-03T23:59:17.222Z,26.55
